メインページ
METAR-TAF:

METAR-TAF

空港 :

ベレン, パラー州, ブラジル

緯度: 01-23S, 経度: 048-29W, 海抜: 16m

現時点の気象観測

当レポートは26分前の21:10(UTC)に作成
北/北東の風 10kt
気温 25°C
湿度 89%
気圧
視程: 5000m
高度1700ftの千切れ雲あり
高度2500ftの雲はほとんどない, 積乱雲.
高度10000ftの千切れ雲あり
激しい雷雨, 小雨

METAR: SBBE 232110Z 03010KT 5000 -TSRA BKN017 FEW025CB BKN100 25/23 Q1 010

時間: 18:36 (21:36 UTC)

予報

当レポートは5時間36分前の16:00(UTC)に作成
予報は23日の 18時(UTC)から 24日の 18時(UTC)まで有効
北東の風 8kt
視程10km以上
高度2500ftの千切れ雲あり
高度3000ftの雲はほとんどない, 塔状積雲.
確率 30% :
23日の 18時(UTC)から 23日の 22時(UTC)まで一時的に
視程: 3000m
高度1000ftの雲は散在している
高度2000ftの千切れ雲あり
高度2500ftの雲はほとんどない, 積乱雲.
激しい雷雨, 雨
23日の 22時(UTC)から 2日の 時(UTC)まで徐々に
の風 5kt
高度2000ftの雲はほとんどない
24日の 06時(UTC)から 24日の 08時(UTC)まで徐々に
の風 3kt
24日の 10時(UTC)から 24日の 12時(UTC)まで徐々に
東/北東の風 8kt
24日の 15時(UTC)から 24日の 17時(UTC)まで徐々に
の風 10kt
高度2000ftの千切れ雲あり
高度2500ftの雲はほとんどない, 塔状積雲.

TAF: SBBE 231600Z 2318/2418 04008KT 9999 BKN025 FEW030TCU TN24/2405Z T X31/2416Z PROB30 TEMPO 2318/2322 3000 TSRA SCT010 BKN020 FEW025CB BECMG 2322/2 324 09005KT FEW020 BECMG 2406/2408 09003KT BECMG 2410/2412 06008KT BKN02 0 BECMG 2415/2417 36010KT BKN020 FEW025TCU RMK PEH

4,000以上の空港の気象観測と天気予報(METAR報とTAF報)

利用可能な観測所は地図上に黄色い丸と赤い丸で示す。

丸の上にカーソルを重ねると観測所名を参照できる。

次にクリックすると気象観測と天気予報を参照できる。

マップの切り替え:黒色「×」印の緑ボタンをクリックして拡大、「-」印の緑ボタンをクリックして縮小、緑色の三角印をクリックして隣りの地図に切り替え


METAR-TAF: